createdAt,value
2018-06-15T04:10:08.652Z,1010.37
2018-06-15T04:10:34.160Z,1010.42
2018-06-15T04:10:59.666Z,1010.37
2018-06-15T04:11:25.144Z,1010.38
2018-06-15T04:11:50.638Z,1010.39
2018-06-15T04:12:16.118Z,1010.42
2018-06-15T04:12:41.609Z,1010.43
2018-06-15T04:13:07.143Z,1010.44
2018-06-15T04:13:32.626Z,1010.42
2018-06-15T04:13:58.131Z,1010.45
2018-06-15T04:14:23.594Z,1010.43
2018-06-15T04:14:49.087Z,1010.48
2018-06-15T04:15:14.573Z,1010.44
2018-06-15T04:15:40.067Z,1010.48
2018-06-15T04:16:05.567Z,1010.45
2018-06-15T04:16:31.055Z,1010.46
2018-06-15T04:16:56.547Z,1010.45
2018-06-15T04:17:22.060Z,1010.44
2018-06-15T04:17:47.517Z,1010.43
2018-06-15T04:18:13.001Z,1010.45
2018-06-15T04:18:38.484Z,1010.45
2018-06-15T04:19:47.194Z,1010.43
2018-06-15T04:20:12.672Z,1010.44
2018-06-15T04:20:38.237Z,1010.44
2018-06-15T04:21:03.690Z,1010.43
2018-06-15T04:21:29.164Z,1010.44
2018-06-15T04:21:54.658Z,1010.42
2018-06-15T04:22:20.159Z,1010.43
2018-06-15T04:22:45.644Z,1010.41
2018-06-15T04:23:11.153Z,1010.46
2018-06-15T04:23:36.606Z,1010.42
2018-06-15T04:24:02.076Z,1010.45
2018-06-15T04:24:27.567Z,1010.47
2018-06-15T04:24:53.033Z,1010.47
2018-06-15T04:25:18.708Z,1010.44
2018-06-15T04:25:44.186Z,1010.47
2018-06-15T04:26:09.660Z,1010.49
2018-06-15T04:26:35.162Z,1010.5
2018-06-15T04:27:00.664Z,1010.5
2018-06-15T04:27:26.138Z,1010.49
2018-06-15T04:27:51.631Z,1010.48
2018-06-15T04:29:00.349Z,1010.48
2018-06-15T04:29:25.873Z,1010.53
2018-06-15T04:29:51.360Z,1010.55
2018-06-15T04:30:16.853Z,1010.54
2018-06-15T04:30:42.349Z,1010.51
2018-06-15T04:31:07.854Z,1010.53
2018-06-15T04:31:33.334Z,1010.51
2018-06-15T04:31:58.810Z,1010.5
2018-06-15T04:32:24.323Z,1010.5
2018-06-15T04:32:49.792Z,1010.53
2018-06-15T04:33:15.268Z,1010.49
2018-06-15T04:33:40.775Z,1010.51
2018-06-15T04:34:06.306Z,1010.53
2018-06-15T04:34:31.753Z,1010.48
2018-06-15T04:34:57.245Z,1010.53
2018-06-15T04:35:22.770Z,1010.53
2018-06-15T04:35:48.241Z,1010.52
2018-06-15T04:36:13.741Z,1010.55
2018-06-15T04:36:39.209Z,1010.49
2018-06-15T04:37:04.712Z,1010.51
2018-06-15T04:37:30.197Z,1010.48
2018-06-15T04:37:55.698Z,1010.48
2018-06-15T04:38:21.194Z,1010.5
2018-06-15T04:38:46.684Z,1010.52
2018-06-15T04:39:12.151Z,1010.49
2018-06-15T04:39:37.645Z,1010.5
2018-06-15T04:40:03.184Z,1010.47
2018-06-15T04:40:28.688Z,1010.5
2018-06-15T04:40:54.183Z,1010.46
2018-06-15T04:41:19.709Z,1010.49
2018-06-15T04:41:45.222Z,1010.49
2018-06-15T04:42:10.770Z,1010.51
2018-06-15T04:42:36.212Z,1010.49
2018-06-15T04:43:34.732Z,1010.47
2018-06-15T04:44:00.279Z,1010.49
2018-06-15T04:44:25.726Z,1010.55
2018-06-15T04:44:51.665Z,1010.52
2018-06-15T04:45:17.305Z,1010.49
2018-06-15T04:45:42.924Z,1010.5
2018-06-15T04:46:08.377Z,1010.48
2018-06-15T04:46:33.845Z,1010.48
2018-06-15T04:46:59.353Z,1010.47
2018-06-15T04:47:24.850Z,1010.48
2018-06-15T04:47:50.331Z,1010.5
2018-06-15T04:48:15.828Z,1010.49
2018-06-15T04:48:41.316Z,1010.5
2018-06-15T04:49:06.798Z,1010.46
2018-06-15T04:49:32.292Z,1010.44
2018-06-15T04:49:57.773Z,1010.44
2018-06-15T04:50:23.245Z,1010.47
2018-06-15T04:50:48.746Z,1010.49
2018-06-15T04:51:14.213Z,1010.48
2018-06-15T04:51:39.707Z,1010.5
2018-06-15T04:52:05.217Z,1010.48
2018-06-15T04:52:30.704Z,1010.51
2018-06-15T04:52:56.193Z,1010.52
2018-06-15T04:53:21.702Z,1010.48
2018-06-15T04:53:47.235Z,1010.51
2018-06-15T04:54:12.703Z,1010.51
2018-06-15T04:54:38.202Z,1010.53
2018-06-15T04:55:03.701Z,1010.52
2018-06-15T04:55:29.204Z,1010.5
2018-06-15T04:55:54.688Z,1010.53
2018-06-15T04:56:20.209Z,1010.53
2018-06-15T04:56:45.654Z,1010.55
2018-06-15T04:57:11.137Z,1010.56
2018-06-15T04:57:36.614Z,1010.57
2018-06-15T04:58:02.098Z,1010.57
2018-06-15T04:58:27.598Z,1010.55
2018-06-15T04:58:53.087Z,1010.57
2018-06-15T04:59:18.590Z,1010.55
2018-06-15T04:59:44.067Z,1010.55
2018-06-15T05:00:09.630Z,1010.55
2018-06-15T05:00:35.128Z,1010.6
2018-06-15T05:01:00.639Z,1010.54
2018-06-15T05:01:26.132Z,1010.56
2018-06-15T05:01:51.649Z,1010.61
2018-06-15T05:02:17.132Z,1010.57
2018-06-15T05:02:42.608Z,1010.56
2018-06-15T05:03:08.163Z,1010.6
2018-06-15T05:03:33.686Z,1010.56
2018-06-15T05:03:59.160Z,1010.59
2018-06-15T05:04:24.654Z,1010.61
2018-06-15T05:04:50.172Z,1010.58
2018-06-15T05:05:15.664Z,1010.58
2018-06-15T05:05:41.159Z,1010.57
2018-06-15T05:06:06.633Z,1010.56
2018-06-15T05:06:32.107Z,1010.62
2018-06-15T05:06:57.584Z,1010.6
2018-06-15T05:07:23.094Z,1010.59
2018-06-15T05:07:48.570Z,1010.62
2018-06-15T05:08:14.059Z,1010.61
2018-06-15T05:08:39.592Z,1010.62
2018-06-15T05:09:05.054Z,1010.62
2018-06-15T05:09:30.552Z,1010.61
2018-06-15T05:09:56.071Z,1010.67
2018-06-15T05:10:21.557Z,1010.63
2018-06-15T05:10:47.033Z,1010.61
2018-06-15T05:11:12.529Z,1010.65
2018-06-15T05:11:37.978Z,1010.65
2018-06-15T05:12:03.498Z,1010.63
2018-06-15T05:12:28.995Z,1010.62
2018-06-15T05:13:32.650Z,1010.65
2018-06-15T05:13:58.103Z,1010.64
2018-06-15T05:14:23.618Z,1010.65
2018-06-15T05:14:49.097Z,1010.65
2018-06-15T05:15:14.608Z,1010.64
2018-06-15T05:15:40.117Z,1010.64
2018-06-15T05:16:05.611Z,1010.66
2018-06-15T05:16:31.108Z,1010.63
2018-06-15T05:16:56.615Z,1010.63
2018-06-15T05:17:22.124Z,1010.65
2018-06-15T05:17:47.552Z,1010.64
2018-06-15T05:18:13.041Z,1010.65
2018-06-15T05:18:38.547Z,1010.64
2018-06-15T05:19:03.989Z,1010.64
2018-06-15T05:19:29.487Z,1010.64
2018-06-15T05:19:54.959Z,1010.67
2018-06-15T05:20:20.447Z,1010.64
2018-06-15T05:20:45.966Z,1010.63
2018-06-15T05:21:11.426Z,1010.67
2018-06-15T05:21:36.895Z,1010.68
2018-06-15T05:22:02.401Z,1010.67
2018-06-15T05:22:27.912Z,1010.64
2018-06-15T05:22:53.360Z,1010.66
2018-06-15T05:23:18.871Z,1010.66
2018-06-15T05:23:44.378Z,1010.6
2018-06-15T05:24:09.874Z,1010.63
2018-06-15T05:24:35.380Z,1010.65
2018-06-15T05:25:00.871Z,1010.6
2018-06-15T05:25:26.316Z,1010.62
2018-06-15T05:25:51.869Z,1010.63
2018-06-15T05:26:17.304Z,1010.62
2018-06-15T05:26:42.820Z,1010.58
2018-06-15T05:27:08.305Z,1010.58
2018-06-15T05:27:33.800Z,1010.62
2018-06-15T05:27:59.267Z,1010.6
2018-06-15T05:28:24.772Z,1010.58
2018-06-15T05:28:50.270Z,1010.55
2018-06-15T05:29:15.745Z,1010.56
2018-06-15T05:29:41.234Z,1010.59
2018-06-15T05:30:06.711Z,1010.56
2018-06-15T05:30:32.186Z,1010.58
2018-06-15T05:30:57.679Z,1010.59
2018-06-15T05:31:23.158Z,1010.6
2018-06-15T05:31:48.644Z,1010.61
2018-06-15T05:32:14.127Z,1010.63
2018-06-15T05:32:39.620Z,1010.61
2018-06-15T05:33:05.103Z,1010.65
2018-06-15T05:33:30.571Z,1010.65
2018-06-15T05:33:56.066Z,1010.63
2018-06-15T05:34:21.563Z,1010.64
2018-06-15T05:34:47.063Z,1010.65
2018-06-15T05:35:12.603Z,1010.65
2018-06-15T05:35:38.028Z,1010.67
2018-06-15T05:36:03.574Z,1010.68
2018-06-15T05:36:29.008Z,1010.66
2018-06-15T05:36:54.516Z,1010.69
2018-06-15T05:37:19.999Z,1010.68
2018-06-15T05:37:45.489Z,1010.69
2018-06-15T05:38:10.980Z,1010.69
2018-06-15T05:38:36.474Z,1010.7
2018-06-15T05:39:01.977Z,1010.72
2018-06-15T05:39:27.484Z,1010.72
2018-06-15T05:39:52.987Z,1010.71
2018-06-15T05:40:18.492Z,1010.71
2018-06-15T05:40:43.905Z,1010.72
2018-06-15T05:41:09.404Z,1010.72
2018-06-15T05:41:34.854Z,1010.71
2018-06-15T05:42:00.361Z,1010.76
2018-06-15T05:42:25.852Z,1010.74
2018-06-15T05:42:51.322Z,1010.7
2018-06-15T05:43:16.794Z,1010.71
2018-06-15T05:43:42.252Z,1010.72
2018-06-15T05:44:07.673Z,1010.77
2018-06-15T05:44:33.142Z,1010.72
2018-06-15T05:44:58.630Z,1010.75
2018-06-15T05:45:24.075Z,1010.78
2018-06-15T05:45:49.587Z,1010.81
2018-06-15T05:46:15.171Z,1010.81
2018-06-15T05:46:40.670Z,1010.81
2018-06-15T05:47:06.064Z,1010.86
2018-06-15T05:47:31.574Z,1010.84
2018-06-15T05:47:57.026Z,1010.87
2018-06-15T05:48:22.468Z,1010.87
2018-06-15T05:48:47.973Z,1010.86
2018-06-15T05:49:13.420Z,1010.85
2018-06-15T05:49:38.911Z,1010.86
2018-06-15T05:50:04.386Z,1010.86
2018-06-15T05:50:29.887Z,1010.88
2018-06-15T05:50:55.313Z,1010.89
2018-06-15T05:51:20.798Z,1010.86
2018-06-15T05:51:46.246Z,1010.88
2018-06-15T05:52:11.755Z,1010.89
2018-06-15T05:52:37.193Z,1010.9
2018-06-15T05:53:02.724Z,1010.89
2018-06-15T05:53:28.187Z,1010.88
2018-06-15T05:53:53.776Z,1010.9
2018-06-15T05:54:19.307Z,1010.9
2018-06-15T05:54:44.721Z,1010.93
2018-06-15T05:55:10.208Z,1010.94
2018-06-15T05:55:35.651Z,1010.92
2018-06-15T05:56:01.099Z,1010.91
2018-06-15T05:56:26.565Z,1010.94
2018-06-15T05:56:52.087Z,1010.9
2018-06-15T05:57:17.520Z,1010.91
2018-06-15T05:57:42.981Z,1010.91
2018-06-15T05:58:08.442Z,1010.88
2018-06-15T05:58:33.900Z,1010.91
2018-06-15T05:58:59.402Z,1010.9
2018-06-15T05:59:24.847Z,1010.91
2018-06-15T05:59:50.369Z,1010.9
2018-06-15T06:00:15.831Z,1010.95
2018-06-15T06:00:41.283Z,1010.92
2018-06-15T06:01:06.776Z,1010.93
2018-06-15T06:01:32.191Z,1010.93
2018-06-15T06:01:57.714Z,1010.93
2018-06-15T06:02:23.159Z,1010.95
2018-06-15T06:02:48.644Z,1010.9
2018-06-15T06:03:14.127Z,1010.95
2018-06-15T06:03:39.632Z,1010.94
2018-06-15T06:04:05.219Z,1010.94
2018-06-15T06:04:30.594Z,1010.94
2018-06-15T06:04:56.095Z,1010.94
2018-06-15T06:05:21.515Z,1010.94
2018-06-15T06:05:47.000Z,1010.95
2018-06-15T06:06:12.508Z,1010.96
2018-06-15T06:06:37.974Z,1010.96
2018-06-15T06:07:03.444Z,1010.98
2018-06-15T06:07:28.900Z,1011.01
2018-06-15T06:07:54.396Z,1010.98
2018-06-15T06:08:19.872Z,1010.95
2018-06-15T06:08:45.364Z,1010.97
2018-06-15T06:09:10.807Z,1010.98
2018-06-15T06:09:36.287Z,1010.98
2018-06-15T06:10:01.791Z,1010.97
2018-06-15T06:10:27.228Z,1011
2018-06-15T06:10:52.720Z,1010.99
2018-06-15T06:11:18.227Z,1011
2018-06-15T06:11:43.700Z,1010.95
2018-06-15T06:12:09.125Z,1010.98
2018-06-15T06:12:34.614Z,1010.95
2018-06-15T06:13:00.089Z,1010.95
2018-06-15T06:13:25.564Z,1010.93
2018-06-15T06:13:51.030Z,1010.96
2018-06-15T06:14:16.503Z,1010.97
2018-06-15T06:14:41.975Z,1010.98
2018-06-15T06:15:07.476Z,1010.92
2018-06-15T06:15:32.929Z,1010.97
2018-06-15T06:15:58.440Z,1010.95
2018-06-15T06:16:23.939Z,1010.98
2018-06-15T06:16:49.382Z,1010.98
2018-06-15T06:17:14.875Z,1010.96
2018-06-15T06:17:40.350Z,1010.97
2018-06-15T06:18:05.841Z,1010.94
2018-06-15T06:18:31.314Z,1010.97
2018-06-15T06:18:56.754Z,1010.95
2018-06-15T06:19:22.228Z,1010.96
2018-06-15T06:19:47.728Z,1010.97
2018-06-15T06:20:13.221Z,1010.92
2018-06-15T06:20:38.646Z,1010.95
2018-06-15T06:21:04.112Z,1010.96
2018-06-15T06:21:29.584Z,1010.94
2018-06-15T06:21:55.061Z,1010.93
2018-06-15T06:22:20.515Z,1010.98
2018-06-15T06:22:46.010Z,1010.97
2018-06-15T06:23:11.544Z,1010.99
2018-06-15T06:23:36.927Z,1010.96
2018-06-15T06:24:02.413Z,1010.95
2018-06-15T06:24:27.839Z,1010.95
2018-06-15T06:24:53.341Z,1010.97
2018-06-15T06:25:18.778Z,1010.96
2018-06-15T06:25:44.240Z,1010.97
2018-06-15T06:26:09.743Z,1011.03
2018-06-15T06:26:35.176Z,1010.97
2018-06-15T06:27:00.689Z,1011
2018-06-15T06:27:26.161Z,1010.98
2018-06-15T06:27:51.655Z,1011
2018-06-15T06:28:17.182Z,1010.99
2018-06-15T06:28:42.618Z,1011.01
2018-06-15T06:29:08.057Z,1011
2018-06-15T06:29:33.570Z,1011.03
2018-06-15T06:29:59.050Z,1011.05
2018-06-15T06:30:24.569Z,1011.01
2018-06-15T06:30:50.125Z,1011.04
2018-06-15T06:31:15.582Z,1011.1
2018-06-15T06:31:41.074Z,1011.08
2018-06-15T06:32:06.537Z,1011.07
2018-06-15T06:32:32.036Z,1011.06
2018-06-15T06:32:57.461Z,1011.11
2018-06-15T06:33:22.963Z,1011.09
2018-06-15T06:33:48.449Z,1011.11
2018-06-15T06:34:13.881Z,1011.13
2018-06-15T06:34:39.413Z,1011.15
2018-06-15T06:35:04.859Z,1011.16
2018-06-15T06:35:30.315Z,1011.14
2018-06-15T06:35:55.798Z,1011.18
2018-06-15T06:36:21.238Z,1011.17
2018-06-15T06:36:46.721Z,1011.19
2018-06-15T06:37:12.149Z,1011.13
2018-06-15T06:37:37.617Z,1011.14
2018-06-15T06:38:03.151Z,1011.19
2018-06-15T06:38:28.592Z,1011.17
2018-06-15T06:38:54.020Z,1011.16
2018-06-15T06:39:19.543Z,1011.16
2018-06-15T06:39:44.992Z,1011.14
2018-06-15T06:40:10.464Z,1011.15
2018-06-15T06:40:35.937Z,1011.16
2018-06-15T06:41:01.407Z,1011.14
2018-06-15T06:41:26.921Z,1011.16
2018-06-15T06:41:52.356Z,1011.17
2018-06-15T06:42:17.852Z,1011.18
2018-06-15T06:42:43.299Z,1011.11
2018-06-15T06:43:08.817Z,1011.15
2018-06-15T06:43:34.266Z,1011.14
2018-06-15T06:43:59.763Z,1011.12
2018-06-15T06:44:25.289Z,1011.14
2018-06-15T06:44:50.798Z,1011.15
2018-06-15T06:45:16.268Z,1011.12
2018-06-15T06:45:41.764Z,1011.13
2018-06-15T06:46:07.229Z,1011.1
2018-06-15T06:46:32.722Z,1011.14
2018-06-15T06:46:58.225Z,1011.13
2018-06-15T06:47:23.770Z,1011.07
2018-06-15T06:47:49.299Z,1011.12
2018-06-15T06:48:14.736Z,1011.11
2018-06-15T06:48:40.320Z,1011.11
2018-06-15T06:49:05.833Z,1011.11
2018-06-15T06:49:31.298Z,1011.05
2018-06-15T06:49:56.798Z,1011.11
2018-06-15T06:50:22.304Z,1011.11
2018-06-15T06:50:47.805Z,1011.08
2018-06-15T06:51:13.279Z,1011.1
2018-06-15T06:51:38.781Z,1011.11
2018-06-15T06:52:04.263Z,1011.08
2018-06-15T06:52:29.774Z,1011.08
2018-06-15T06:52:55.260Z,1011.09
2018-06-15T06:53:20.737Z,1011.1
2018-06-15T06:53:46.224Z,1011.12
2018-06-15T06:54:11.697Z,1011.1
2018-06-15T06:54:37.187Z,1011.11
2018-06-15T06:55:02.732Z,1011.16
2018-06-15T06:55:28.186Z,1011.13
2018-06-15T06:55:53.671Z,1011.16
2018-06-15T06:56:19.188Z,1011.12
2018-06-15T06:56:44.630Z,1011.17
2018-06-15T06:57:10.098Z,1011.13
2018-06-15T06:57:35.676Z,1011.15
2018-06-15T06:58:01.094Z,1011.16
2018-06-15T06:58:26.673Z,1011.15
2018-06-15T06:58:52.065Z,1011.16
2018-06-15T06:59:17.523Z,1011.18
2018-06-15T06:59:43.214Z,1011.19
2018-06-15T07:00:09.078Z,1011.17
2018-06-15T07:00:34.537Z,1011.18
2018-06-15T07:01:00.125Z,1011.21
2018-06-15T07:01:25.625Z,1011.15
2018-06-15T07:01:51.025Z,1011.19
2018-06-15T07:02:16.478Z,1011.21
2018-06-15T07:02:41.976Z,1011.18
2018-06-15T07:03:07.572Z,1011.19
2018-06-15T07:03:33.008Z,1011.17
2018-06-15T07:03:58.508Z,1011.22
2018-06-15T07:04:23.909Z,1011.17
2018-06-15T07:04:49.387Z,1011.19
2018-06-15T07:05:14.850Z,1011.21
2018-06-15T07:05:40.298Z,1011.21
2018-06-15T07:06:05.783Z,1011.21
2018-06-15T07:06:31.201Z,1011.16
2018-06-15T07:06:56.689Z,1011.18
2018-06-15T07:07:22.248Z,1011.16
2018-06-15T07:07:47.639Z,1011.17
2018-06-15T07:08:13.132Z,1011.14
2018-06-15T07:08:38.572Z,1011.15
2018-06-15T07:09:04.017Z,1011.11
2018-06-15T07:09:29.554Z,1011.17
2018-06-15T07:09:55.060Z,1011.16
2018-06-15T07:10:20.593Z,1011.12
2018-06-15T07:10:46.069Z,1011.13
2018-06-15T07:11:11.560Z,1011.14
2018-06-15T07:11:37.044Z,1011.16
2018-06-15T07:12:02.547Z,1011.12
2018-06-15T07:12:28.052Z,1011.12
2018-06-15T07:12:53.597Z,1011.15
2018-06-15T07:13:19.126Z,1011.12
2018-06-15T07:13:44.627Z,1011.15
2018-06-15T07:14:10.252Z,1011.16
2018-06-15T07:14:35.649Z,1011.16
2018-06-15T07:15:01.113Z,1011.11
2018-06-15T07:15:26.529Z,1011.2
2018-06-15T07:15:52.145Z,1011.16
2018-06-15T07:16:17.613Z,1011.18
2018-06-15T07:16:43.095Z,1011.22
2018-06-15T07:17:08.539Z,1011.2
2018-06-15T07:17:34.027Z,1011.2
2018-06-15T07:17:59.488Z,1011.2
2018-06-15T07:18:25.023Z,1011.2
2018-06-15T07:18:50.448Z,1011.19
2018-06-15T07:19:15.911Z,1011.2
2018-06-15T07:19:41.408Z,1011.19
2018-06-15T07:20:06.973Z,1011.2
2018-06-15T07:20:32.385Z,1011.21
2018-06-15T07:20:57.986Z,1011.18
2018-06-15T07:21:23.504Z,1011.22
2018-06-15T07:21:48.940Z,1011.2
2018-06-15T07:22:14.386Z,1011.21
2018-06-15T07:22:39.886Z,1011.19
2018-06-15T07:23:05.326Z,1011.21
2018-06-15T07:23:30.844Z,1011.17
2018-06-15T07:23:56.264Z,1011.2
2018-06-15T07:24:21.795Z,1011.2
2018-06-15T07:24:47.257Z,1011.18
2018-06-15T07:25:12.688Z,1011.18
2018-06-15T07:25:38.135Z,1011.21
2018-06-15T07:26:03.592Z,1011.18
2018-06-15T07:26:29.081Z,1011.2
2018-06-15T07:26:54.653Z,1011.19
2018-06-15T07:27:20.094Z,1011.18
2018-06-15T07:27:45.510Z,1011.18
2018-06-15T07:28:10.959Z,1011.13
2018-06-15T07:28:36.446Z,1011.16
2018-06-15T07:29:01.938Z,1011.16
2018-06-15T07:29:27.406Z,1011.13
2018-06-15T07:29:52.897Z,1011.17
2018-06-15T07:30:18.367Z,1011.13
2018-06-15T07:30:43.809Z,1011.16
2018-06-15T07:31:09.252Z,1011.16
2018-06-15T07:31:34.792Z,1011.15
2018-06-15T07:32:00.243Z,1011.14
2018-06-15T07:32:25.828Z,1011.14
2018-06-15T07:32:51.215Z,1011.15
2018-06-15T07:33:16.725Z,1011.17
2018-06-15T07:33:42.196Z,1011.12
2018-06-15T07:34:07.708Z,1011.15
2018-06-15T07:34:33.159Z,1011.15
2018-06-15T07:34:58.624Z,1011.18
2018-06-15T07:35:24.091Z,1011.14
2018-06-15T07:35:49.582Z,1011.14
2018-06-15T07:36:15.004Z,1011.16
2018-06-15T07:36:40.505Z,1011.16
2018-06-15T07:37:05.962Z,1011.15
2018-06-15T07:37:31.457Z,1011.16
2018-06-15T07:37:56.994Z,1011.17
2018-06-15T07:38:22.473Z,1011.15
2018-06-15T07:38:47.914Z,1011.13
2018-06-15T07:39:13.392Z,1011.15
2018-06-15T07:39:38.913Z,1011.17
2018-06-15T07:40:04.408Z,1011.18
2018-06-15T07:40:29.859Z,1011.16
2018-06-15T07:40:55.337Z,1011.14
2018-06-15T07:41:20.779Z,1011.14
2018-06-15T07:41:46.232Z,1011.15
2018-06-15T07:42:11.693Z,1011.16
2018-06-15T07:42:37.156Z,1011.18
2018-06-15T07:43:02.647Z,1011.15
2018-06-15T07:43:28.147Z,1011.16
2018-06-15T07:43:53.618Z,1011.18
2018-06-15T07:44:19.117Z,1011.19
2018-06-15T07:44:44.599Z,1011.19
2018-06-15T07:45:10.042Z,1011.17
2018-06-15T07:45:35.566Z,1011.18
2018-06-15T07:46:01.044Z,1011.16
2018-06-15T07:46:26.530Z,1011.16
2018-06-15T07:46:52.060Z,1011.17
2018-06-15T07:47:17.561Z,1011.18
2018-06-15T07:47:43.041Z,1011.18
2018-06-15T07:48:08.498Z,1011.18
2018-06-15T07:48:33.957Z,1011.17
2018-06-15T07:48:59.439Z,1011.18
2018-06-15T07:49:24.920Z,1011.19
2018-06-15T07:49:50.456Z,1011.17
2018-06-15T07:50:15.900Z,1011.19
2018-06-15T07:50:41.384Z,1011.16
2018-06-15T07:51:06.866Z,1011.17
2018-06-15T07:51:32.333Z,1011.19
2018-06-15T07:51:57.793Z,1011.16
2018-06-15T07:52:23.213Z,1011.17
2018-06-15T07:52:48.695Z,1011.21
2018-06-15T07:53:14.199Z,1011.24
2018-06-15T07:53:39.689Z,1011.17
2018-06-15T07:54:05.125Z,1011.18
2018-06-15T07:54:30.586Z,1011.2
2018-06-15T07:54:56.043Z,1011.19
2018-06-15T07:55:21.522Z,1011.19
2018-06-15T07:55:47.048Z,1011.17
2018-06-15T07:56:12.465Z,1011.17
2018-06-15T07:56:37.897Z,1011.15
2018-06-15T07:57:03.545Z,1011.18
2018-06-15T07:57:29.094Z,1011.15
2018-06-15T07:57:54.555Z,1011.16
2018-06-15T07:58:20.054Z,1011.2
2018-06-15T07:58:45.520Z,1011.16
2018-06-15T07:59:10.984Z,1011.16
2018-06-15T07:59:36.486Z,1011.18
2018-06-15T08:00:01.959Z,1011.23
2018-06-15T08:00:27.414Z,1011.21
2018-06-15T08:00:52.887Z,1011.23
2018-06-15T08:01:18.478Z,1011.23
2018-06-15T08:01:43.910Z,1011.22
2018-06-15T08:02:09.399Z,1011.23
2018-06-15T08:02:34.854Z,1011.23
2018-06-15T08:03:00.353Z,1011.26
2018-06-15T08:03:25.900Z,1011.25
2018-06-15T08:03:51.332Z,1011.2
2018-06-15T08:04:16.826Z,1011.21
2018-06-15T08:04:42.296Z,1011.24
2018-06-15T08:05:07.847Z,1011.25
2018-06-15T08:05:33.288Z,1011.25
2018-06-15T08:05:58.725Z,1011.26
2018-06-15T08:06:24.223Z,1011.26
2018-06-15T08:06:49.698Z,1011.24
2018-06-15T08:07:15.210Z,1011.26
2018-06-15T08:07:40.700Z,1011.23
2018-06-15T08:08:06.159Z,1011.25
2018-06-15T08:08:31.623Z,1011.22
2018-06-15T08:08:57.097Z,1011.2
2018-06-15T08:09:22.592Z,1011.2
2018-06-15T08:09:48.069Z,1011.22
2018-06-15T08:10:13.665Z,1011.21
2018-06-15T08:10:38.994Z,1011.2
2018-06-15T08:11:04.566Z,1011.2
2018-06-15T08:11:30.031Z,1011.18
2018-06-15T08:11:55.483Z,1011.18
2018-06-15T08:12:20.982Z,1011.16
2018-06-15T08:12:46.427Z,1011.21
2018-06-15T08:13:11.940Z,1011.18
2018-06-15T08:13:37.356Z,1011.17
2018-06-15T08:14:02.800Z,1011.18
2018-06-15T08:14:28.297Z,1011.19
2018-06-15T08:14:53.744Z,1011.18
2018-06-15T08:15:19.270Z,1011.16
2018-06-15T08:15:44.820Z,1011.16
2018-06-15T08:16:10.246Z,1011.14
2018-06-15T08:16:35.715Z,1011.13
2018-06-15T08:17:01.234Z,1011.14
2018-06-15T08:17:26.680Z,1011.12
2018-06-15T08:17:52.138Z,1011.09
2018-06-15T08:18:17.673Z,1011.12
2018-06-15T08:18:43.158Z,1011.11
2018-06-15T08:19:08.601Z,1011.1
2018-06-15T08:19:34.051Z,1011.14
2018-06-15T08:19:59.590Z,1011.11
2018-06-15T08:20:25.047Z,1011.15
2018-06-15T08:20:50.523Z,1011.17
2018-06-15T08:21:16.000Z,1011.16
2018-06-15T08:21:41.526Z,1011.17
2018-06-15T08:22:07.063Z,1011.16
2018-06-15T08:22:32.557Z,1011.17
2018-06-15T08:22:58.058Z,1011.18
2018-06-15T08:23:23.655Z,1011.23
2018-06-15T08:23:49.144Z,1011.2
2018-06-15T08:24:14.655Z,1011.16
2018-06-15T08:24:40.173Z,1011.15
2018-06-15T08:25:05.643Z,1011.17
2018-06-15T08:25:31.155Z,1011.19
2018-06-15T08:25:56.693Z,1011.18
2018-06-15T08:26:22.201Z,1011.15
2018-06-15T08:26:47.717Z,1011.12
2018-06-15T08:27:13.210Z,1011.16
2018-06-15T08:27:38.726Z,1011.14
2018-06-15T08:28:04.166Z,1011.15
2018-06-15T08:28:29.664Z,1011.15
2018-06-15T08:28:55.160Z,1011.17
2018-06-15T08:29:20.705Z,1011.19
2018-06-15T08:29:46.183Z,1011.13
2018-06-15T08:30:11.694Z,1011.13
2018-06-15T08:30:37.169Z,1011.14
2018-06-15T08:31:56.196Z,1011.13
2018-06-15T08:32:21.706Z,1011.11
2018-06-15T08:32:47.212Z,1011.12
2018-06-15T08:33:12.704Z,1011.17
2018-06-15T08:33:38.191Z,1011.12
2018-06-15T08:34:03.671Z,1011.14
2018-06-15T08:35:17.410Z,1011.09
2018-06-15T08:35:42.903Z,1011.07
2018-06-15T08:36:08.403Z,1011.09
2018-06-15T08:36:33.896Z,1011.1
2018-06-15T08:36:59.429Z,1011.09
2018-06-15T08:37:24.934Z,1011.16
2018-06-15T08:37:50.429Z,1011.11
2018-06-15T08:38:15.922Z,1011.07
2018-06-15T08:38:41.392Z,1011.1
2018-06-15T08:39:06.872Z,1011.1
2018-06-15T08:39:32.336Z,1011.11
2018-06-15T08:39:57.807Z,1011.14
2018-06-15T08:40:23.339Z,1011.11
2018-06-15T08:40:48.839Z,1011.09
2018-06-15T08:41:14.346Z,1011.12
2018-06-15T08:41:39.872Z,1011.13
2018-06-15T08:42:05.359Z,1011.14
2018-06-15T08:42:30.832Z,1011.14
2018-06-15T08:42:56.303Z,1011.12
2018-06-15T08:43:21.809Z,1011.1
2018-06-15T08:43:47.320Z,1011.12
2018-06-15T08:44:12.801Z,1011.11
2018-06-15T08:44:38.278Z,1011.09
2018-06-15T08:45:03.755Z,1011.1
2018-06-15T08:45:29.319Z,1011.1
2018-06-15T08:45:54.751Z,1011.12
2018-06-15T08:46:20.236Z,1011.13
2018-06-15T08:46:45.786Z,1011.16
2018-06-15T08:47:11.269Z,1011.16
2018-06-15T08:47:36.779Z,1011.14
2018-06-15T08:48:02.236Z,1011.12
2018-06-15T08:48:27.751Z,1011.16
2018-06-15T08:48:53.224Z,1011.12
2018-06-15T08:49:18.740Z,1011.11
2018-06-15T08:49:44.243Z,1011.12
2018-06-15T08:50:09.742Z,1011.13
2018-06-15T08:50:35.234Z,1011.12
2018-06-15T08:51:00.763Z,1011.14
2018-06-15T08:52:15.320Z,1011.14
2018-06-15T08:52:40.830Z,1011.17
2018-06-15T08:53:06.303Z,1011.15
2018-06-15T08:53:31.791Z,1011.17
2018-06-15T08:53:57.255Z,1011.12
2018-06-15T08:54:22.738Z,1011.15
2018-06-15T08:55:21.245Z,1011.08
2018-06-15T08:55:46.739Z,1011.12
2018-06-15T08:56:12.239Z,1011.15
2018-06-15T08:56:37.751Z,1011.13
2018-06-15T08:57:03.240Z,1011.13
2018-06-15T08:57:28.748Z,1011.13
2018-06-15T08:57:54.231Z,1011.13
2018-06-15T08:58:19.697Z,1011.11
2018-06-15T08:58:45.191Z,1011.14
2018-06-15T08:59:10.701Z,1011.16
2018-06-15T08:59:36.243Z,1011.15
2018-06-15T09:00:01.724Z,1011.12
2018-06-15T09:00:27.202Z,1011.14
2018-06-15T09:00:52.694Z,1011.1
2018-06-15T09:01:18.202Z,1011.12
2018-06-15T09:01:43.704Z,1011.13
2018-06-15T09:02:09.192Z,1011.13
2018-06-15T09:02:34.687Z,1011.13
2018-06-15T09:03:38.282Z,1011.1
2018-06-15T09:04:03.778Z,1011.14
2018-06-15T09:04:29.280Z,1011.13
2018-06-15T09:04:54.789Z,1011.13
2018-06-15T09:05:20.274Z,1011.08
2018-06-15T09:05:45.762Z,1011.07
2018-06-15T09:06:11.268Z,1011.1
2018-06-15T09:06:36.768Z,1011.13
2018-06-15T09:07:02.343Z,1011.09
2018-06-15T09:07:27.804Z,1011.08
2018-06-15T09:07:53.292Z,1011.07
2018-06-15T09:08:18.775Z,1011.08
2018-06-15T09:08:44.264Z,1011.12
2018-06-15T09:09:09.752Z,1011.1
2018-06-15T09:09:35.248Z,1011.08
2018-06-15T09:10:00.764Z,1011.07
2018-06-15T09:10:26.245Z,1011.1
2018-06-15T09:10:51.726Z,1011.09
2018-06-15T09:11:17.211Z,1011.08
2018-06-15T09:11:42.690Z,1011.09
2018-06-15T09:12:08.183Z,1011.1
2018-06-15T09:12:33.676Z,1011.05
2018-06-15T09:12:59.139Z,1011.08
2018-06-15T09:13:24.623Z,1011.05
2018-06-15T09:13:50.139Z,1011.08
2018-06-15T09:14:15.558Z,1011.07
2018-06-15T09:14:41.006Z,1011.09
2018-06-15T09:15:06.535Z,1011.07
2018-06-15T09:15:31.920Z,1011.07
2018-06-15T09:15:57.393Z,1011.1
2018-06-15T09:16:22.903Z,1011.1
2018-06-15T09:16:48.428Z,1011.11
2018-06-15T09:17:13.937Z,1011.08
2018-06-15T09:17:39.398Z,1011.08
2018-06-15T09:18:04.918Z,1011.11
2018-06-15T09:18:30.322Z,1011.07
2018-06-15T09:18:55.801Z,1011.07
2018-06-15T09:19:21.310Z,1011.08
2018-06-15T09:19:46.846Z,1011.06
2018-06-15T09:20:12.342Z,1011.04
2018-06-15T09:20:37.837Z,1011.02
2018-06-15T09:21:03.383Z,1011.03
2018-06-15T09:21:28.870Z,1011.09
2018-06-15T09:21:54.355Z,1011.05
2018-06-15T09:22:19.881Z,1011.06
2018-06-15T09:22:45.384Z,1011.05
2018-06-15T09:23:10.884Z,1011.05
2018-06-15T09:24:19.631Z,1011.08
2018-06-15T09:24:45.135Z,1011.05
2018-06-15T09:25:10.642Z,1011.07
2018-06-15T09:25:36.145Z,1011.06
2018-06-15T09:26:01.658Z,1011.05
2018-06-15T09:26:27.170Z,1011.04